Time;durP1;ratioP1;P1;durP2;ratioP2;P2;SDS_P1;SDS_P2;PMS_P1;PMS_P2;Temp;Humidity;BMP_temperature;BMP_pressure;BME280_temperature;BME280_humidity;BME280_pressure;Samples;Min_cycle;Max_cycle;Signal;HPM_P1;HPM_P2
2023/01/18 00:01:14;;;;;;;2.17;0.63;;;;;;;13.39;69.72;93245.66;5051646;28;20237;-53
2023/01/18 00:03:41;;;;;;;0.73;0.60;;;;;;;13.28;70.10;93228.28;5052463;28;20592;-57
2023/01/18 00:06:09;;;;;;;1.07;0.60;;;;;;;13.24;70.52;93216.06;5052763;28;20250;-58
2023/01/18 00:08:37;;;;;;;2.33;0.80;;;;;;;13.17;71.17;93216.00;5052146;28;20214;-57
2023/01/18 00:11:11;;;;;;;6.90;0.60;;;;;;;13.38;70.41;93256.84;5052132;28;20194;-57
2023/01/18 00:13:43;;;;;;;1.57;0.57;;;;;;;13.50;69.76;93252.06;5052285;28;20213;-58
2023/01/18 00:16:17;;;;;;;1.33;0.65;;;;;;;13.37;70.01;93250.16;5052379;28;20197;-58
2023/01/18 00:18:43;;;;;;;1.75;0.60;;;;;;;13.54;69.13;93275.44;5052610;28;20244;-52
2023/01/18 00:21:11;;;;;;;1.97;0.67;;;;;;;13.64;68.42;93281.06;5052223;28;20263;-54
2023/01/18 00:23:37;;;;;;;0.70;0.50;;;;;;;13.57;68.69;93292.97;5052543;28;20209;-57
2023/01/18 00:26:05;;;;;;;0.73;0.50;;;;;;;13.59;68.22;93285.94;5052265;28;20351;-55
2023/01/18 00:28:30;;;;;;;3.73;0.87;;;;;;;13.57;68.79;93293.78;5052043;28;20232;-55
2023/01/18 00:30:56;;;;;;;1.08;0.70;;;;;;;13.61;68.12;93306.97;5050647;28;20190;-57
2023/01/18 00:33:21;;;;;;;0.60;0.50;;;;;;;13.49;68.94;93265.81;5051898;28;20283;-58
2023/01/18 00:35:58;;;;;;;3.50;0.70;;;;;;;13.49;69.59;93287.00;5052105;28;20742;-53
2023/01/18 00:38:24;;;;;;;2.87;0.70;;;;;;;13.22;70.25;93239.22;5052192;28;20205;-54
2023/01/18 00:40:51;;;;;;;1.08;0.75;;;;;;;13.11;71.03;93201.41;5050708;28;20186;-54
2023/01/18 00:43:38;;;;;;;2.38;0.85;;;;;;;13.37;69.57;93208.56;5050931;28;20244;-53
2023/01/18 00:46:15;;;;;;;0.65;0.40;;;;;;;13.51;69.01;93212.81;5050898;28;20224;-53
2023/01/18 00:48:43;;;;;;;1.47;0.33;;;;;;;13.53;69.29;93233.03;5051182;28;20217;-58
2023/01/18 00:51:11;;;;;;;1.27;0.77;;;;;;;13.40;69.41;93220.94;5051636;28;20185;-57
2023/01/18 00:53:37;;;;;;;0.90;0.60;;;;;;;13.46;69.27;93243.19;5050330;28;20355;-60
2023/01/18 00:56:07;;;;;;;0.70;0.70;;;;;;;13.51;69.55;93234.97;5050325;28;20622;-56
2023/01/18 00:58:33;;;;;;;1.73;0.87;;;;;;;13.51;68.99;93263.06;5049844;28;20228;-59
2023/01/18 01:00:58;;;;;;;1.65;0.52;;;;;;;13.49;68.63;93253.81;5051280;28;20215;-54
2023/01/18 01:03:24;;;;;;;2.05;0.65;;;;;;;13.49;68.55;93265.81;5051562;28;20228;-54
2023/01/18 01:08:33;;;;;;;1.40;0.73;;;;;;;13.40;68.84;93254.13;5051436;28;20643;-54
2023/01/18 01:11:05;;;;;;;1.58;0.80;;;;;;;13.30;69.60;93234.00;5066972;28;20283;-57
2023/01/18 01:27:12;;;;;;;1.33;1.00;;;;;;;13.11;72.03;93187.88;5051377;28;20188;-57
2023/01/18 01:29:38;;;;;;;3.07;0.90;;;;;;;13.01;72.75;93162.59;5050473;28;20216;-57
2023/01/18 01:32:04;;;;;;;1.50;1.02;;;;;;;12.86;72.62;93156.78;5050088;28;20344;-57
2023/01/18 01:34:30;;;;;;;4.15;1.00;;;;;;;12.84;73.28;93145.97;5048030;28;20217;-56
2023/01/18 01:36:56;;;;;;;2.97;1.00;;;;;;;12.87;73.06;93142.25;5050563;28;20209;-57
2023/01/18 01:39:22;;;;;;;2.40;1.00;;;;;;;12.98;72.36;93185.94;5051547;28;20205;-58
2023/01/18 01:41:47;;;;;;;3.10;0.67;;;;;;;12.93;72.35;93162.72;5051203;28;20193;-56
2023/01/18 01:44:16;;;;;;;0.90;0.85;;;;;;;12.97;72.63;93150.41;5050668;28;20225;-58
2023/01/18 01:46:46;;;;;;;1.93;0.93;;;;;;;12.93;72.67;93162.72;5051373;28;20666;-58
2023/01/18 01:49:14;;;;;;;1.23;0.70;;;;;;;12.93;72.90;93165.28;5051395;28;20240;-57
2023/01/18 01:51:46;;;;;;;1.77;0.70;;;;;;;13.04;71.92;93202.31;5050671;28;20192;-56
2023/01/18 01:54:27;;;;;;;1.33;0.77;;;;;;;12.86;72.57;93196.78;5065878;28;20300;-54
2023/01/18 01:56:57;;;;;;;2.30;0.73;;;;;;;12.99;72.77;93168.88;5051334;28;20686;-55
2023/01/18 01:59:23;;;;;;;1.30;0.83;;;;;;;13.14;72.60;93167.88;5051045;28;20235;-53
2023/01/18 02:01:48;;;;;;;3.53;0.67;;;;;;;13.37;70.40;93254.50;5050988;28;20189;-56
2023/01/18 02:04:14;;;;;;;0.80;0.67;;;;;;;13.46;69.80;93256.75;5050768;28;20758;-55
2023/01/18 02:06:40;;;;;;;0.47;0.47;;;;;;;13.48;69.89;93243.78;5050718;28;20189;-59
2023/01/18 02:09:12;;;;;;;6.15;1.27;;;;;;;13.64;68.90;93296.38;5050923;28;20263;-57
2023/01/18 02:11:39;;;;;;;1.35;0.75;;;;;;;13.83;67.77;93285.56;5051952;28;20213;-57
2023/01/18 02:14:09;;;;;;;3.33;0.70;;;;;;;13.89;67.93;93261.84;5054458;28;20209;-56
2023/01/18 02:16:34;;;;;;;4.17;1.00;;;;;;;13.80;68.60;93227.97;5054101;28;20263;-56
2023/01/18 02:19:30;;;;;;;0.55;0.55;;;;;;;13.61;68.76;93222.69;5053936;28;20273;-53
2023/01/18 02:22:24;;;;;;;2.20;0.60;;;;;;;13.49;70.53;93187.44;5054161;28;20269;-53
2023/01/18 02:25:41;;;;;;;1.13;0.53;;;;;;;13.10;70.10;93176.88;5053978;28;20588;-58
2023/01/18 02:28:09;;;;;;;0.40;0.40;;;;;;;13.31;71.28;93202.38;5028146;28;20320;-55
2023/01/18 02:30:46;;;;;;;1.03;0.83;;;;;;;13.13;71.98;93150.97;5069568;28;20289;-56
2023/01/18 02:33:31;;;;;;;2.33;1.23;;;;;;;12.80;72.05;93137.09;5054401;28;20623;-59
2023/01/18 02:36:02;;;;;;;1.17;0.90;;;;;;;13.06;72.25;93147.59;5054176;28;20185;-53
2023/01/18 02:39:05;;;;;;;1.20;0.90;;;;;;;13.05;72.54;93140.91;5054504;28;20208;-54
2023/01/18 02:47:13;;;;;;;3.97;1.53;;;;;;;12.90;73.98;93126.59;5053610;28;20670;-54
2023/01/18 02:49:39;;;;;;;1.93;1.30;;;;;;;13.00;74.12;93124.53;5051649;28;20564;-57
2023/01/18 02:52:07;;;;;;;3.35;1.10;;;;;;;12.92;74.96;93089.75;5051673;28;20178;-54
2023/01/18 02:54:39;;;;;;;4.53;1.20;;;;;;;12.77;75.26;93073.69;5051565;28;20761;-57
2023/01/18 02:57:14;;;;;;;1.80;0.90;;;;;;;12.91;74.21;93131.50;5050835;28;20197;-52
2023/01/18 02:59:47;;;;;;;2.75;1.27;;;;;;;12.82;75.01;93116.50;5051655;28;20741;-53
2023/01/18 03:02:19;;;;;;;2.37;0.83;;;;;;;12.78;75.34;93144.13;5053044;28;20579;-53
2023/01/18 03:04:54;;;;;;;3.10;1.20;;;;;;;12.60;76.88;93069.81;5053546;28;20267;-54
2023/01/18 03:07:28;;;;;;;3.00;1.37;;;;;;;12.57;76.77;93059.97;5053652;28;20254;-57
2023/01/18 03:09:55;;;;;;;2.83;1.10;;;;;;;12.34;76.36;93010.94;5053815;28;20579;-53
2023/01/18 03:12:47;;;;;;;1.70;0.70;;;;;;;12.43;77.25;93027.69;5053509;28;20190;-54
2023/01/18 03:15:37;;;;;;;1.30;0.67;;;;;;;12.59;76.45;93060.56;5053254;28;20236;-55
2023/01/18 03:18:33;;;;;;;2.00;1.20;;;;;;;12.64;76.01;93076.91;5053755;28;20575;-55
2023/01/18 03:21:04;;;;;;;2.67;0.70;;;;;;;12.74;75.07;93097.03;5053289;28;20198;-58
2023/01/18 03:23:44;;;;;;;1.73;0.80;;;;;;;12.79;75.34;93096.47;5053030;28;20221;-57
2023/01/18 03:26:18;;;;;;;1.70;0.90;;;;;;;12.75;74.64;93100.34;5053829;28;20189;-56
2023/01/18 03:34:26;;;;;;;6.40;1.20;;;;;;;12.63;76.25;93062.59;5052702;28;20647;-58
2023/01/18 03:36:55;;;;;;;2.20;1.00;;;;;;;12.75;74.55;93116.44;5053365;28;20276;-57
2023/01/18 03:39:24;;;;;;;2.93;1.10;;;;;;;12.83;74.15;93121.41;5053143;28;20209;-55
2023/01/18 03:41:56;;;;;;;4.47;0.90;;;;;;;12.86;73.69;93133.81;5068321;28;20224;-54
2023/01/18 03:44:34;;;;;;;2.33;1.00;;;;;;;12.84;73.41;93120.47;5052933;28;20229;-56
2023/01/18 03:47:02;;;;;;;1.13;0.83;;;;;;;12.93;72.64;93162.72;5052902;28;20188;-53
2023/01/18 03:49:28;;;;;;;4.93;1.40;;;;;;;13.00;72.76;93176.34;5052619;28;20243;-55
2023/01/18 03:52:24;;;;;;;1.10;1.00;;;;;;;12.99;72.57;93169.66;5052431;28;20192;-53
2023/01/18 03:55:37;;;;;;;1.47;1.30;;;;;;;13.03;72.13;93191.28;5047111;28;20204;-52
2023/01/18 03:58:09;;;;;;;1.43;0.70;;;;;;;13.01;71.79;93198.31;4991085;28;20282;-54
2023/01/18 04:00:36;;;;;;;3.30;1.23;;;;;;;13.08;72.37;93183.13;5042373;28;20206;-55
2023/01/18 04:03:02;;;;;;;2.00;0.90;;;;;;;13.04;72.25;93161.50;5053161;28;20217;-56
2023/01/18 04:05:28;;;;;;;2.47;0.67;;;;;;;13.12;70.51;93205.53;5051185;28;20258;-56
2023/01/18 04:07:53;;;;;;;1.73;0.83;;;;;;;13.14;70.74;93202.81;5051756;28;20271;-58
2023/01/18 04:10:19;;;;;;;5.73;1.07;;;;;;;13.20;68.85;93268.44;5052550;28;20199;-57
2023/01/18 04:12:44;;;;;;;5.13;0.67;;;;;;;13.72;66.71;93337.13;5052875;28;20213;-57
2023/01/18 04:15:11;;;;;;;2.63;1.17;;;;;;;13.81;65.78;93359.03;5052504;28;20198;-59
2023/01/18 04:17:38;;;;;;;2.23;0.80;;;;;;;13.88;65.63;93344.53;5052210;28;20380;-58
2023/01/18 04:20:04;;;;;;;3.33;1.00;;;;;;;13.83;66.61;93308.56;5052309;28;20572;-56
2023/01/18 04:22:29;;;;;;;6.57;1.00;;;;;;;13.83;66.12;93318.78;5050626;28;20232;-57
2023/01/18 04:24:55;;;;;;;5.67;1.13;;;;;;;13.77;65.83;93320.31;5067860;28;20699;-58
2023/01/18 04:27:20;;;;;;;5.30;1.17;;;;;;;14.00;64.81;93353.31;5051875;28;20194;-54
2023/01/18 04:29:46;;;;;;;3.63;1.52;;;;;;;14.06;64.63;93358.50;5052013;28;20671;-53
2023/01/18 04:32:11;;;;;;;5.03;1.17;;;;;;;13.86;64.61;93342.19;5051982;28;21696;-54
2023/01/18 04:34:37;;;;;;;5.13;0.60;;;;;;;14.04;64.06;93344.31;5050544;28;20255;-55
2023/01/18 04:37:02;;;;;;;6.72;1.48;;;;;;;14.10;64.24;93361.47;5067593;28;20189;-56
2023/01/18 04:39:28;;;;;;;3.63;0.93;;;;;;;14.01;64.60;93339.56;5068101;28;20217;-58
2023/01/18 04:41:53;;;;;;;2.20;0.90;;;;;;;14.08;64.33;93356.53;5051585;28;20200;-60
2023/01/18 04:44:19;;;;;;;4.07;1.33;;;;;;;13.98;65.06;93317.72;5051715;28;20213;-57
2023/01/18 04:46:46;;;;;;;2.58;0.80;;;;;;;14.05;64.50;93348.47;5067407;28;20216;-56
2023/01/18 04:49:14;;;;;;;3.88;1.25;;;;;;;14.00;64.66;93338.78;5051944;28;20209;-57
2023/01/18 04:51:40;;;;;;;5.47;1.03;;;;;;;14.07;63.70;93360.09;5051737;28;20193;-56
2023/01/18 04:54:08;;;;;;;5.07;1.07;;;;;;;14.06;63.91;93347.47;5050080;28;20264;-58
2023/01/18 04:56:34;;;;;;;5.00;1.60;;;;;;;13.93;65.55;93298.81;5049788;28;20193;-53
2023/01/18 04:58:59;;;;;;;7.70;2.90;;;;;;;13.81;65.55;93302.84;5049985;28;20300;-53
2023/01/18 05:01:25;;;;;;;2.50;1.38;;;;;;;13.87;66.88;93261.25;5052429;28;20349;-53
2023/01/18 05:03:55;;;;;;;2.53;0.90;;;;;;;13.97;64.51;93297.47;5065274;28;20221;-54
2023/01/18 05:06:20;;;;;;;2.20;0.90;;;;;;;13.94;64.41;93334.41;5050290;28;20200;-58
2023/01/18 05:08:46;;;;;;;3.17;0.80;;;;;;;14.05;63.39;93358.69;5051700;28;20213;-59
2023/01/18 05:11:14;;;;;;;2.57;1.33;;;;;;;14.17;64.14;93339.31;5067304;28;20185;-57
2023/01/18 05:13:40;;;;;;;19.00;12.33;;;;;;;14.07;66.17;93308.97;5052215;28;20702;-59
2023/01/18 05:16:11;;;;;;;6.07;1.60;;;;;;;14.43;66.67;93339.56;5052127;28;20235;-60
2023/01/18 05:18:37;;;;;;;8.75;5.68;;;;;;;14.27;71.16;93168.56;5051970;28;20224;-58
2023/01/18 05:21:03;;;;;;;4.03;1.10;;;;;;;14.36;65.23;93353.28;5051245;28;20189;-59
2023/01/18 05:23:28;;;;;;;5.60;1.13;;;;;;;14.10;63.76;93343.56;5065934;28;20221;-59
2023/01/18 05:25:55;;;;;;;4.53;1.10;;;;;;;14.36;63.52;93384.75;5049032;28;20193;-57
2023/01/18 05:28:23;;;;;;;2.90;0.88;;;;;;;14.09;64.97;93321.56;5049299;28;20213;-58
2023/01/18 05:30:49;;;;;;;3.80;1.00;;;;;;;13.98;65.19;93299.84;5051173;28;20252;-59
2023/01/18 05:33:18;;;;;;;4.73;1.27;;;;;;;14.23;63.65;93364.97;5052339;28;20225;-57
2023/01/18 05:35:51;;;;;;;2.70;1.13;;;;;;;14.17;64.37;93345.25;5051044;28;20225;-58
2023/01/18 05:38:17;;;;;;;3.63;1.25;;;;;;;14.19;64.16;93376.53;5051506;28;20279;-54
2023/01/18 05:40:44;;;;;;;3.20;0.70;;;;;;;14.03;65.36;93335.06;5051127;28;20620;-56
2023/01/18 05:43:11;;;;;;;2.83;1.10;;;;;;;13.59;65.95;93291.03;5051588;28;20386;-55
2023/01/18 05:45:36;;;;;;;6.85;1.20;;;;;;;14.18;64.32;93374.91;5069300;28;20725;-57
2023/01/18 05:48:02;;;;;;;6.57;1.20;;;;;;;14.29;63.83;93415.38;5057405;28;20316;-58
2023/01/18 05:50:29;;;;;;;9.40;1.53;;;;;;;14.32;63.61;93385.31;5058174;28;20284;-60
2023/01/18 05:52:57;;;;;;;2.97;0.90;;;;;;;14.31;63.38;93392.19;5057938;28;20274;-57
2023/01/18 05:55:23;;;;;;;4.93;1.55;;;;;;;14.29;63.71;93387.25;5057450;28;20201;-57
2023/01/18 05:57:48;;;;;;;4.38;0.93;;;;;;;14.26;63.46;93412.38;5058089;28;20687;-55
2023/01/18 06:00:14;;;;;;;7.22;1.00;;;;;;;14.26;63.41;93399.59;5057856;28;20268;-54
2023/01/18 06:02:39;;;;;;;6.30;1.27;;;;;;;14.47;62.53;93427.72;5057476;28;20220;-54
2023/01/18 06:05:12;;;;;;;3.00;1.00;;;;;;;14.45;62.75;93416.88;5058148;28;20213;-58
2023/01/18 06:07:38;;;;;;;5.88;1.15;;;;;;;14.51;62.47;93439.16;5073192;28;20228;-58
2023/01/18 06:10:04;;;;;;;6.60;1.27;;;;;;;14.48;62.86;93390.97;5056838;28;20701;-56
2023/01/18 06:12:29;;;;;;;4.22;1.08;;;;;;;14.42;63.25;93384.03;5056135;28;20300;-53
2023/01/18 06:14:55;;;;;;;5.78;0.82;;;;;;;14.46;63.10;93410.81;5056559;28;20634;-56
2023/01/18 06:17:21;;;;;;;5.57;1.00;;;;;;;14.43;63.10;93400.13;5057343;28;20572;-52
2023/01/18 06:19:46;;;;;;;6.20;1.20;;;;;;;14.49;62.85;93415.53;5057313;28;20188;-55
2023/01/18 06:22:12;;;;;;;1.43;0.80;;;;;;;14.56;62.66;93406.19;5058115;28;20185;-55
2023/01/18 06:24:37;;;;;;;4.47;1.08;;;;;;;14.56;62.77;93401.06;5057338;28;20217;-53
2023/01/18 06:27:03;;;;;;;4.20;0.80;;;;;;;14.55;62.69;93424.25;5057368;28;20201;-57
2023/01/18 06:29:29;;;;;;;3.57;1.13;;;;;;;14.60;62.17;93412.50;5057086;28;20707;-55
2023/01/18 06:31:54;;;;;;;3.07;0.90;;;;;;;14.60;62.60;93421.94;5056915;28;20186;-55
2023/01/18 06:34:20;;;;;;;3.45;1.08;;;;;;;14.60;62.50;93416.81;5074692;28;20224;-59
2023/01/18 06:36:46;;;;;;;3.10;0.90;;;;;;;14.63;62.35;93480.38;5057440;28;20189;-54
2023/01/18 06:39:12;;;;;;;2.80;1.00;;;;;;;14.59;63.02;93423.69;5056084;28;20214;-58
2023/01/18 06:41:38;;;;;;;8.05;1.52;;;;;;;14.57;63.13;93382.16;5056115;28;20268;-58
2023/01/18 06:44:03;;;;;;;3.47;0.90;;;;;;;14.53;62.72;93390.38;5056102;28;20221;-54
2023/01/18 06:46:29;;;;;;;5.55;0.93;;;;;;;14.69;63.14;93403.72;5055964;28;20614;-60
2023/01/18 06:48:55;;;;;;;3.90;0.93;;;;;;;14.62;63.42;93395.22;5058473;28;20224;-54
2023/01/18 06:51:20;;;;;;;5.10;1.10;;;;;;;14.62;63.51;93361.97;5072754;28;20659;-58
2023/01/18 06:53:46;;;;;;;6.67;1.23;;;;;;;14.52;63.83;93337.69;5057128;28;20275;-52
2023/01/18 06:56:13;;;;;;;2.38;0.70;;;;;;;14.64;63.41;93456.41;5057074;28;20577;-60
2023/01/18 06:58:39;;;;;;;12.48;1.60;;;;;;;14.72;63.27;93393.13;5053113;28;20217;-57
2023/01/18 07:01:05;;;;;;;5.50;1.10;;;;;;;14.73;63.61;93355.53;5052800;28;20193;-56
2023/01/18 07:03:31;;;;;;;7.27;1.10;;;;;;;14.70;63.90;93320.09;5054805;28;20247;-53
2023/01/18 07:05:59;;;;;;;3.13;0.70;;;;;;;14.69;63.99;93321.06;5053121;28;20185;-55
2023/01/18 07:08:26;;;;;;;8.13;1.30;;;;;;;14.79;62.98;93350.44;5053472;28;20257;-54
2023/01/18 07:10:53;;;;;;;5.70;1.27;;;;;;;14.82;63.10;93328.84;5053109;28;20189;-53
2023/01/18 07:13:19;;;;;;;6.50;0.98;;;;;;;14.95;62.89;93350.16;5053139;28;20254;-55
2023/01/18 07:15:50;;;;;;;8.45;1.33;;;;;;;14.95;62.51;93334.81;5053089;28;20185;-54
2023/01/18 07:18:16;;;;;;;2.80;1.00;;;;;;;14.93;62.66;93326.53;5053151;28;20210;-53
2023/01/18 07:20:41;;;;;;;6.72;0.95;;;;;;;14.92;62.61;93371.03;5052991;28;20178;-55
2023/01/18 07:23:07;;;;;;;4.75;1.27;;;;;;;14.98;62.01;93383.06;5052560;28;20632;-54
2023/01/18 07:25:32;;;;;;;3.47;1.15;;;;;;;14.99;61.79;93341.13;5052832;28;20255;-54
2023/01/18 07:27:57;;;;;;;4.20;1.10;;;;;;;15.07;61.40;93325.63;5053131;28;20235;-57
2023/01/18 07:30:23;;;;;;;3.17;1.00;;;;;;;15.07;61.77;93310.25;5052824;28;20177;-57
2023/01/18 07:32:51;;;;;;;4.03;1.00;;;;;;;15.23;61.12;93329.63;5052700;28;20217;-56
2023/01/18 07:35:20;;;;;;;5.73;1.20;;;;;;;15.18;61.20;93365.25;5053011;28;20173;-58
2023/01/18 07:37:51;;;;;;;3.40;1.20;;;;;;;15.12;61.59;93353.22;5052856;28;20258;-56
2023/01/18 07:40:16;;;;;;;3.08;0.95;;;;;;;15.15;61.64;93343.38;5052741;28;20189;-57
2023/01/18 07:42:42;;;;;;;2.55;1.10;;;;;;;15.32;61.31;93348.19;5052598;28;20210;-57
2023/01/18 07:45:08;;;;;;;6.18;1.30;;;;;;;15.24;61.23;93394.44;5052700;28;20221;-56
2023/01/18 07:47:34;;;;;;;5.00;1.00;;;;;;;15.23;61.05;93436.38;5052372;28;20307;-58
2023/01/18 07:50:00;;;;;;;4.45;1.10;;;;;;;15.40;60.91;93409.47;5052453;28;20284;-56
2023/01/18 07:52:26;;;;;;;5.13;1.25;;;;;;;15.50;60.33;93446.63;5052555;28;20772;-57
2023/01/18 07:54:51;;;;;;;7.53;1.10;;;;;;;15.46;59.89;93490.72;5052518;28;20276;-53
2023/01/18 07:57:16;;;;;;;6.35;1.02;;;;;;;15.63;59.81;93553.50;5052458;28;20181;-54
2023/01/18 07:59:42;;;;;;;6.38;1.27;;;;;;;15.58;60.23;93492.56;5052448;28;20193;-54
2023/01/18 08:02:11;;;;;;;4.90;1.35;;;;;;;15.72;59.46;93552.34;5052212;28;20219;-57
2023/01/18 08:04:38;;;;;;;3.20;0.90;;;;;;;15.63;59.73;93543.25;5052158;28;20221;-57
2023/01/18 08:07:04;;;;;;;8.07;0.95;;;;;;;15.88;59.02;93555.41;5052009;28;20215;-57
2023/01/18 08:09:29;;;;;;;6.10;1.02;;;;;;;16.02;58.46;93589.59;5051003;28;20209;-55
2023/01/18 08:11:55;;;;;;;3.25;0.90;;;;;;;16.02;57.94;93624.72;5052006;28;20185;-56
2023/01/18 08:14:21;;;;;;;8.52;1.60;;;;;;;15.72;57.80;93573.66;5051895;28;20217;-56
2023/01/18 08:16:46;;;;;;;1.80;0.77;;;;;;;16.18;57.68;93645.72;5051978;28;20659;-56
2023/01/18 08:19:11;;;;;;;5.55;1.52;;;;;;;16.22;57.43;93664.09;5052007;28;20221;-59
2023/01/18 08:21:37;;;;;;;9.73;1.48;;;;;;;16.23;57.75;93655.41;5050798;28;20189;-59
2023/01/18 08:24:02;;;;;;;4.80;1.23;;;;;;;16.29;57.73;93641.84;5052070;28;20221;-55
2023/01/18 08:26:28;;;;;;;5.70;1.17;;;;;;;16.22;57.99;93636.66;5052010;28;20315;-55
2023/01/18 08:28:55;;;;;;;4.93;0.90;;;;;;;16.40;57.69;93649.00;5051879;28;20205;-56
2023/01/18 08:31:20;;;;;;;5.25;1.45;;;;;;;16.51;57.18;93680.09;5051887;28;20177;-57
2023/01/18 08:33:47;;;;;;;5.15;1.15;;;;;;;16.57;57.29;93642.59;5052085;28;20220;-57
2023/01/18 08:36:21;;;;;;;2.60;1.02;;;;;;;16.43;57.08;93658.88;5051361;28;20663;-58
2023/01/18 08:38:52;;;;;;;5.47;1.20;;;;;;;16.76;56.63;93670.94;5050120;28;20240;-57
2023/01/18 08:41:19;;;;;;;8.07;1.20;;;;;;;16.69;56.68;93646.19;5049566;28;20730;-58
2023/01/18 08:43:49;;;;;;;9.60;1.17;;;;;;;16.94;55.93;93664.47;5049488;28;20217;-56
2023/01/18 08:46:15;;;;;;;5.10;1.42;;;;;;;17.17;55.26;93688.84;5049684;28;20197;-59
2023/01/18 08:48:42;;;;;;;4.07;1.30;;;;;;;17.20;55.60;93664.53;5049816;28;20225;-56
2023/01/18 08:51:08;;;;;;;5.07;0.98;;;;;;;17.06;56.11;93650.88;5066952;28;20189;-57
2023/01/18 08:53:34;;;;;;;3.75;1.33;;;;;;;17.23;55.31;93682.94;5051635;28;20288;-58
2023/01/18 08:56:04;;;;;;;7.82;1.20;;;;;;;16.63;56.87;93623.88;5051584;28;20641;-58
2023/01/18 08:58:30;;;;;;;2.83;1.10;;;;;;;17.18;55.96;93663.94;5050635;28;20229;-57
2023/01/18 09:00:56;;;;;;;2.95;1.13;;;;;;;16.91;56.04;93652.81;5051333;28;20182;-56
2023/01/18 09:03:22;;;;;;;2.55;0.75;;;;;;;16.89;56.03;93648.88;5051587;28;20630;-58
2023/01/18 09:05:48;;;;;;;6.78;1.50;;;;;;;17.08;55.53;93659.19;5066689;28;20193;-55
2023/01/18 09:08:14;;;;;;;5.00;1.17;;;;;;;17.04;55.56;93658.00;5051210;28;20205;-56
2023/01/18 09:10:39;;;;;;;4.00;1.27;;;;;;;17.05;55.77;93685.25;5051155;28;20182;-56
2023/01/18 09:13:05;;;;;;;5.65;1.30;;;;;;;17.16;55.24;93707.00;5049910;28;20267;-55
2023/01/18 09:15:31;;;;;;;6.75;1.33;;;;;;;17.18;55.35;93710.19;5051340;28;20586;-58
2023/01/18 09:17:57;;;;;;;3.33;1.13;;;;;;;17.13;55.31;93709.97;5050255;28;20205;-55
2023/01/18 09:20:24;;;;;;;9.02;1.40;;;;;;;17.46;54.29;93744.25;5050579;28;20208;-57
2023/01/18 09:22:50;;;;;;;7.70;1.25;;;;;;;17.25;54.87;93716.91;5051142;28;20617;-57
2023/01/18 09:25:17;;;;;;;5.57;1.45;;;;;;;17.41;54.41;93726.06;5051019;28;20345;-57
2023/01/18 09:27:43;;;;;;;6.00;1.45;;;;;;;17.79;53.40;93767.50;5051104;28;20679;-56
2023/01/18 09:30:09;;;;;;;6.32;1.33;;;;;;;17.10;54.97;93707.78;5064688;28;20271;-55
2023/01/18 09:32:35;;;;;;;7.90;0.93;;;;;;;17.22;54.70;93706.25;5049117;28;20205;-57
2023/01/18 09:35:01;;;;;;;3.33;1.23;;;;;;;17.36;53.51;93769.53;5048957;28;20196;-56
2023/01/18 09:37:26;;;;;;;4.20;0.60;;;;;;;17.14;54.09;93739.81;5049312;28;20790;-54
2023/01/18 09:39:51;;;;;;;9.27;1.05;;;;;;;17.14;54.63;93714.91;5048019;28;20196;-56
2023/01/18 09:42:24;;;;;;;4.88;1.20;;;;;;;17.49;54.09;93747.25;5047624;28;20264;-59
2023/01/18 09:44:59;;;;;;;7.15;1.20;;;;;;;17.72;53.45;93769.25;5048323;28;20708;-55
2023/01/18 09:47:29;;;;;;;3.47;1.13;;;;;;;17.14;54.85;93702.06;5049392;28;20197;-55
2023/01/18 09:49:57;;;;;;;7.00;1.48;;;;;;;17.57;54.45;93723.94;5050776;28;20220;-57
2023/01/18 09:52:35;;;;;;;4.13;1.13;;;;;;;18.00;53.01;93777.59;5050735;28;20186;-58
2023/01/18 09:55:16;;;;;;;2.80;1.40;;;;;;;18.30;52.40;93779.63;5050855;28;20197;-53
2023/01/18 09:57:47;;;;;;;3.13;1.30;;;;;;;17.74;52.97;93768.09;5050655;28;20374;-54
2023/01/18 10:00:21;;;;;;;4.72;1.00;;;;;;;17.43;53.77;93735.16;5050586;28;20198;-53
2023/01/18 10:02:52;;;;;;;8.70;1.77;;;;;;;17.65;53.58;93738.41;5050875;28;20343;-54
2023/01/18 10:05:24;;;;;;;2.22;0.93;;;;;;;17.42;53.91;93712.22;5065616;28;20710;-55
2023/01/18 10:08:04;;;;;;;3.33;0.82;;;;;;;18.03;52.02;93788.31;5049491;28;20343;-54
2023/01/18 10:10:38;;;;;;;3.97;1.15;;;;;;;18.03;51.88;93785.75;5047120;28;20185;-53
2023/01/18 10:13:34;;;;;;;4.60;1.25;;;;;;;18.13;51.00;93801.59;5049846;28;20238;-53
2023/01/18 10:16:01;;;;;;;5.95;1.38;;;;;;;18.20;50.47;93830.69;5050433;28;20255;-53
2023/01/18 10:18:27;;;;;;;6.55;1.70;;;;;;;18.31;50.29;93812.09;5050440;28;20262;-58
2023/01/18 10:20:57;;;;;;;3.22;1.17;;;;;;;18.50;49.91;93861.25;5050470;28;20616;-56
2023/01/18 10:24:01;;;;;;;7.22;1.80;;;;;;;19.39;48.62;93894.09;5050229;28;20220;-58
2023/01/18 10:26:30;;;;;;;9.48;1.40;;;;;;;19.09;46.99;93910.94;5019390;28;20688;-58
2023/01/18 10:29:17;;;;;;;3.10;0.77;;;;;;;18.89;48.20;93745.31;5050577;28;20271;-60
2023/01/18 10:32:00;;;;;;;5.13;1.50;;;;;;;19.15;47.69;93742.66;5050418;28;20201;-59
2023/01/18 10:34:32;;;;;;;7.15;1.55;;;;;;;18.88;47.81;93694.81;5053725;28;20229;-59
2023/01/18 10:37:21;;;;;;;4.05;1.33;;;;;;;18.75;48.22;93680.19;5053629;28;20200;-53
2023/01/18 10:39:51;;;;;;;7.85;1.63;;;;;;;17.82;50.03;93623.13;5053632;28;20194;-58
2023/01/18 10:42:28;;;;;;;4.85;1.00;;;;;;;17.78;50.67;93609.88;5052848;28;20211;-58
2023/01/18 10:44:53;;;;;;;5.38;1.38;;;;;;;17.75;50.73;93610.28;5052952;28;20220;-57
2023/01/18 10:47:19;;;;;;;8.77;1.52;;;;;;;18.48;49.38;93683.03;5053068;28;20186;-58
2023/01/18 10:49:49;;;;;;;9.57;1.65;;;;;;;18.10;49.72;93655.34;5052917;28;20185;-58
2023/01/18 10:52:27;;;;;;;8.82;1.65;;;;;;;18.59;49.16;93690.13;5051569;28;20189;-58
2023/01/18 10:54:56;;;;;;;2.88;1.17;;;;;;;18.28;49.72;93658.09;5051707;28;20212;-53
2023/01/18 10:57:25;;;;;;;6.60;1.65;;;;;;;18.33;49.64;93654.91;5051773;28;20185;-54
2023/01/18 10:59:52;;;;;;;6.18;1.70;;;;;;;19.10;47.69;93717.53;5053200;28;20203;-54
2023/01/18 11:02:32;;;;;;;4.00;1.48;;;;;;;19.08;46.86;93753.00;5068818;28;20208;-53
2023/01/18 11:05:29;;;;;;;2.55;0.98;;;;;;;18.39;48.13;93687.56;5053195;28;20204;-55
2023/01/18 11:08:21;;;;;;;4.28;1.17;;;;;;;18.49;48.27;93657.09;5053207;28;20209;-53
2023/01/18 11:10:58;;;;;;;5.40;0.90;;;;;;;18.52;47.86;93681.66;5053303;28;20570;-53
2023/01/18 11:13:39;;;;;;;3.50;1.05;;;;;;;19.32;46.40;93707.72;5053487;28;20209;-57
2023/01/18 11:16:11;;;;;;;4.90;1.58;;;;;;;18.79;47.29;93662.53;5052939;28;20204;-57
2023/01/18 11:18:37;;;;;;;5.53;1.60;;;;;;;18.04;49.17;93603.94;5052714;28;20218;-56
2023/01/18 11:21:09;;;;;;;4.55;1.20;;;;;;;18.03;49.62;93592.03;5051370;28;20188;-52
2023/01/18 11:23:36;;;;;;;10.48;1.60;;;;;;;18.42;48.73;93636.47;5051254;28;20236;-57
2023/01/18 11:26:12;;;;;;;7.93;1.85;;;;;;;18.03;49.87;93580.00;5051405;28;20586;-58
2023/01/18 11:28:50;;;;;;;5.32;1.35;;;;;;;18.34;49.23;93616.13;5050514;28;20786;-59
2023/01/18 11:31:24;;;;;;;8.18;1.30;;;;;;;18.06;49.65;93617.38;5051776;28;20189;-54
2023/01/18 11:34:00;;;;;;;6.10;1.25;;;;;;;18.55;48.08;93660.63;5051915;28;20217;-53
2023/01/18 11:36:41;;;;;;;4.50;1.33;;;;;;;17.80;49.88;93602.75;5068255;28;20212;-57
2023/01/18 11:39:34;;;;;;;8.27;3.58;;;;;;;18.59;48.21;93633.50;5053108;28;20267;-55
2023/01/18 11:42:09;;;;;;;5.80;1.60;;;;;;;18.35;48.65;93647.78;5052715;28;20272;-53
2023/01/18 11:44:42;;;;;;;3.63;1.33;;;;;;;18.61;47.79;93673.50;5052244;28;20216;-51
2023/01/18 11:47:19;;;;;;;4.43;1.45;;;;;;;18.82;47.88;93664.72;5052413;28;20648;-55
2023/01/18 11:49:55;;;;;;;6.05;1.60;;;;;;;19.23;46.79;93685.72;5051371;28;20189;-54
2023/01/18 11:52:21;;;;;;;6.95;1.80;;;;;;;19.57;46.15;93718.91;5050518;28;20197;-58
2023/01/18 11:54:59;;;;;;;8.77;1.88;;;;;;;18.83;46.12;93720.38;5066661;28;20189;-58
2023/01/18 11:57:27;;;;;;;6.35;1.30;;;;;;;18.83;47.12;93684.31;5052645;28;20213;-59
2023/01/18 11:59:53;;;;;;;3.17;1.40;;;;;;;18.51;47.19;93692.91;5067908;28;20185;-59
2023/01/18 12:02:37;;;;;;;4.38;0.95;;;;;;;19.03;46.12;93703.06;5050989;28;20246;-60
2023/01/18 12:05:35;;;;;;;9.70;1.65;;;;;;;18.33;47.53;93639.47;5052246;28;20585;-56
2023/01/18 12:08:19;;;;;;;6.30;1.60;;;;;;;19.39;45.75;93702.56;5018780;28;20225;-54
2023/01/18 12:11:16;;;;;;;7.65;1.42;;;;;;;19.49;45.24;93724.31;5052206;28;20189;-54
2023/01/18 12:13:51;;;;;;;5.43;1.50;;;;;;;20.03;44.46;93760.69;5049855;28;20240;-59
2023/01/18 12:17:01;;;;;;;4.30;1.58;;;;;;;20.02;43.28;93766.03;5049917;28;20242;-54